Terminal Aerodrome Forecast
Issued by NWS

Home | Current Version | Previous Version | Text Only | Print | Product List | Glossary On
Versions: 1 2 3 4 5 6 7 8 9 10 11 12 13
000
FTUS44 KEPZ 191136
TAFDMN
TAF
KDMN 191136Z 1912/2012 27005KT P6SM SKC
     FM191700 26017G27KT P6SM FEW100 FEW130
     FM200300 26009KT P6SM FEW250=

USA.gov is the U.S. government's official web portal to all federal, state and local government web resources and services.